Norwegian Star — C6FR3 — position and weather

sailwx.info

Track history (hours):
 
Tides and Currents Weather Stations Pressure Air Temp Water Temp Dewpoint Dewpoint Depression Visibility Wind Speed Wind Dir Waves Ship Positions

Norwegian Star

Operator: Norwegian Cruise Line

Last reported at 2014-Oct-02 10:32 UTC. Time now 2014-Oct-02 10:42 UTC.
Position N 55°57' W 004°46'.

Type: Ship. MMSI: 311082000.

Date/timePositionNaut miles runAvg speedWind from/ knotsBaromVisibWave heightAir tempDewpointWater temp
2014-Oct-02 10:32N 55°57' W 004°46'0 0.0
2014-Oct-02 09:32N 55°57' W 004°46'0 0.0
2014-Oct-02 08:32N 55°57' W 004°46'0 0.0
2014-Oct-02 07:31N 55°57' W 004°46'0 0.0
2014-Oct-02 06:31N 55°57' W 004°46'2 1.9
2014-Oct-02 05:33N 55°58' W 004°49'1515.0
2014-Oct-02 04:33N 55°44' W 004°59'1010.0
2014-Oct-02 03:33N 55°34' W 005°00'1110.2
2014-Oct-02 02:26N 55°23' W 005°00'7 7.4
2014-Oct-02 01:30N 55°18' W 005°09'9 8.6
2014-Oct-02 00:30N 55°10' W 005°14'7 7.4
2014-Oct-01 23:33N 55°03' W 005°18'7 7.1
2014-Oct-01 22:33N 54°57' W 005°21'7 7.0
2014-Oct-01 21:33N 54°51' W 005°29'7 7.4
2014-Oct-01 20:33N 54°45' W 005°37'9 8.3
2014-Oct-01 19:28N 54°40' W 005°50'3 0.3
2014-Oct-01 06:28N 54°38' W 005°53'6 7.1
2014-Oct-01 05:34N 54°42' W 005°45'8 8.4
2014-Oct-01 04:34N 54°49' W 005°37'10 9.4
2014-Oct-01 03:30N 54°59' W 005°38'9 9.7
2014-Oct-01 02:33N 55°06' W 005°47'10 9.6
2014-Oct-01 01:33N 55°14' W 005°58'10 9.5
2014-Oct-01 00:33N 55°21' W 006°08'1010.1
2014-Sep-30 23:33N 55°25' W 006°24'10 9.6
2014-Sep-30 22:33N 55°32' W 006°36'10 9.5
2014-Sep-30 21:33N 55°39' W 006°48'10 9.7
2014-Sep-30 20:33N 55°45' W 007°00'10 9.5
2014-Sep-30 19:33N 55°52' W 007°12'64214.1
2014-Sep-28 22:06N 63°25' W 022°12'4718.4
2014-Sep-28 19:32N 64°10' W 022°49'2020.5
2014-Sep-28 18:33N 64°12' W 022°03'5 5.2
2014-Sep-28 17:32N 64°09' W 021°52'0 0.0
2014-Sep-28 16:31N 64°09' W 021°52'0 0.0
2014-Sep-28 15:31N 64°09' W 021°52'0 0.0
2014-Sep-28 14:33N 64°09' W 021°52'0 0.0
2014-Sep-28 13:33N 64°09' W 021°52'0 0.0
2014-Sep-28 12:33N 64°09' W 021°52'0 0.0
2014-Sep-28 11:32N 64°09' W 021°52'0 0.0
2014-Sep-28 10:32N 64°09' W 021°52'0 0.0
2014-Sep-28 09:32N 64°09' W 021°52'0 0.0
2014-Sep-28 08:31N 64°09' W 021°52'0 0.1
2014-Sep-28 07:33N 64°09' W 021°52'7 6.9
2014-Sep-28 06:33N 64°11' W 022°07'1111.5
2014-Sep-28 05:33N 64°08' W 022°33'1110.9
2014-Sep-28 04:33N 64°04' W 022°56'3310.7
2014-Sep-28 01:32N 63°35' W 022°24'  
2014-Sep-23 19:31N 59°05' E 004°30'1313.9
2014-Sep-23 18:33N 58°54' E 004°44'1714.0
2014-Sep-23 17:23N 58°39' E 005°00'1313.9
2014-Sep-23 16:27N 58°28' E 005°13'1213.8
2014-Sep-23 15:33N 58°19' E 005°28'1413.9
2014-Sep-23 14:33N 58°10' E 005°48'15913.3
2014-Sep-23 02:33N 57°50' E 010°46'1413.7
2014-Sep-23 01:34N 57°40' E 011°03'1414.2
2014-Sep-23 00:33N 57°30' E 011°22'1413.8
2014-Sep-22 23:33N 57°18' E 011°33'1514.1
2014-Sep-22 22:30N 57°04' E 011°43'1314.0
2014-Sep-22 21:34N 56°51' E 011°51'1414.2
2014-Sep-22 20:33N 56°38' E 011°57'1413.8
2014-Sep-22 19:34N 56°24' E 012°03'1313.0
2014-Sep-22 18:33N 56°14' E 012°16'1414.3
2014-Sep-22 17:33N 56°05' E 012°37'1313.3
2014-Sep-22 16:33N 55°52' E 012°44'1010.1
2014-Sep-22 15:32N 55°43' E 012°37'0 0.0
2014-Sep-22 14:32N 55°43' E 012°37'0 0.0
2014-Sep-22 13:31N 55°43' E 012°37'0 0.0
2014-Sep-22 12:31N 55°43' E 012°37'0 0.0
2014-Sep-22 11:31N 55°43' E 012°37'0 0.0
2014-Sep-22 10:33N 55°43' E 012°37'  
Track history (hours):
 
Tides and Currents Weather Stations Pressure Air Temp Water Temp Dewpoint Dewpoint Depression Visibility Wind Speed Wind Dir Waves Ship Positions

Norwegian Star

Operator: Norwegian Cruise Line

Last reported at 2014-Oct-02 10:32 UTC. Time now 2014-Oct-02 10:42 UTC.
Position N 55°57' W 004°46'.

Type: Ship. MMSI: 311082000.

Date/timePositionNaut miles runAvg speedWind from/ knotsBaromVisibWave heightAir tempDewpointWater temp
2014-Oct-02 10:32N 55°57' W 004°46'0 0.0
2014-Oct-02 09:32N 55°57' W 004°46'0 0.0
2014-Oct-02 08:32N 55°57' W 004°46'0 0.0
2014-Oct-02 07:31N 55°57' W 004°46'0 0.0
2014-Oct-02 06:31N 55°57' W 004°46'2 1.9
2014-Oct-02 05:33N 55°58' W 004°49'1515.0
2014-Oct-02 04:33N 55°44' W 004°59'1010.0
2014-Oct-02 03:33N 55°34' W 005°00'1110.2
2014-Oct-02 02:26N 55°23' W 005°00'7 7.4
2014-Oct-02 01:30N 55°18' W 005°09'9 8.6
2014-Oct-02 00:30N 55°10' W 005°14'7 7.4
2014-Oct-01 23:33N 55°03' W 005°18'7 7.1
2014-Oct-01 22:33N 54°57' W 005°21'7 7.0
2014-Oct-01 21:33N 54°51' W 005°29'7 7.4
2014-Oct-01 20:33N 54°45' W 005°37'9 8.3
2014-Oct-01 19:28N 54°40' W 005°50'3 0.3
2014-Oct-01 06:28N 54°38' W 005°53'6 7.1
2014-Oct-01 05:34N 54°42' W 005°45'8 8.4
2014-Oct-01 04:34N 54°49' W 005°37'10 9.4
2014-Oct-01 03:30N 54°59' W 005°38'9 9.7
2014-Oct-01 02:33N 55°06' W 005°47'10 9.6
2014-Oct-01 01:33N 55°14' W 005°58'10 9.5
2014-Oct-01 00:33N 55°21' W 006°08'1010.1
2014-Sep-30 23:33N 55°25' W 006°24'10 9.6
2014-Sep-30 22:33N 55°32' W 006°36'10 9.5
2014-Sep-30 21:33N 55°39' W 006°48'10 9.7
2014-Sep-30 20:33N 55°45' W 007°00'10 9.5
2014-Sep-30 19:33N 55°52' W 007°12'64214.1
2014-Sep-28 22:06N 63°25' W 022°12'4718.4
2014-Sep-28 19:32N 64°10' W 022°49'2020.5
2014-Sep-28 18:33N 64°12' W 022°03'5 5.2
2014-Sep-28 17:32N 64°09' W 021°52'0 0.0
2014-Sep-28 16:31N 64°09' W 021°52'0 0.0
2014-Sep-28 15:31N 64°09' W 021°52'0 0.0
2014-Sep-28 14:33N 64°09' W 021°52'0 0.0
2014-Sep-28 13:33N 64°09' W 021°52'0 0.0
2014-Sep-28 12:33N 64°09' W 021°52'0 0.0
2014-Sep-28 11:32N 64°09' W 021°52'0 0.0
2014-Sep-28 10:32N 64°09' W 021°52'0 0.0
2014-Sep-28 09:32N 64°09' W 021°52'0 0.0
2014-Sep-28 08:31N 64°09' W 021°52'0 0.1
2014-Sep-28 07:33N 64°09' W 021°52'7 6.9
2014-Sep-28 06:33N 64°11' W 022°07'1111.5
2014-Sep-28 05:33N 64°08' W 022°33'1110.9
2014-Sep-28 04:33N 64°04' W 022°56'3310.7
2014-Sep-28 01:32N 63°35' W 022°24'  
2014-Sep-23 19:31N 59°05' E 004°30'1313.9
2014-Sep-23 18:33N 58°54' E 004°44'1714.0
2014-Sep-23 17:23N 58°39' E 005°00'1313.9
2014-Sep-23 16:27N 58°28' E 005°13'1213.8
2014-Sep-23 15:33N 58°19' E 005°28'1413.9
2014-Sep-23 14:33N 58°10' E 005°48'15913.3
2014-Sep-23 02:33N 57°50' E 010°46'1413.7
2014-Sep-23 01:34N 57°40' E 011°03'1414.2
2014-Sep-23 00:33N 57°30' E 011°22'1413.8
2014-Sep-22 23:33N 57°18' E 011°33'1514.1
2014-Sep-22 22:30N 57°04' E 011°43'1314.0
2014-Sep-22 21:34N 56°51' E 011°51'1414.2
2014-Sep-22 20:33N 56°38' E 011°57'1413.8
2014-Sep-22 19:34N 56°24' E 012°03'1313.0
2014-Sep-22 18:33N 56°14' E 012°16'1414.3
2014-Sep-22 17:33N 56°05' E 012°37'1313.3
2014-Sep-22 16:33N 55°52' E 012°44'1010.1
2014-Sep-22 15:32N 55°43' E 012°37'0 0.0
2014-Sep-22 14:32N 55°43' E 012°37'0 0.0
2014-Sep-22 13:31N 55°43' E 012°37'0 0.0
2014-Sep-22 12:31N 55°43' E 012°37'0 0.0
2014-Sep-22 11:31N 55°43' E 012°37'0 0.0
2014-Sep-22 10:33N 55°43' E 012°37'  

Dump ship's entire track history